sensor_id;sensor_type;location;lat;lon;timestamp;P1;durP1;ratioP1;P2;durP2;ratioP2
22871;SDS011;11603;44.910;8.630;2023-04-03T00:01:14;5.95;;;4.28;;
22871;SDS011;11603;44.910;8.630;2023-04-03T00:03:40;7.05;;;4.20;;
22871;SDS011;11603;44.910;8.630;2023-04-03T00:06:09;7.45;;;4.72;;
22871;SDS011;11603;44.910;8.630;2023-04-03T00:08:36;7.95;;;4.07;;
22871;SDS011;11603;44.910;8.630;2023-04-03T00:11:02;6.90;;;4.60;;
22871;SDS011;11603;44.910;8.630;2023-04-03T00:13:29;8.85;;;4.60;;
22871;SDS011;11603;44.910;8.630;2023-04-03T00:15:54;6.05;;;4.50;;
22871;SDS011;11603;44.910;8.630;2023-04-03T00:18:20;7.53;;;4.78;;
22871;SDS011;11603;44.910;8.630;2023-04-03T00:20:46;8.40;;;4.70;;
22871;SDS011;11603;44.910;8.630;2023-04-03T00:23:12;7.97;;;4.80;;
22871;SDS011;11603;44.910;8.630;2023-04-03T00:25:38;6.63;;;4.50;;
22871;SDS011;11603;44.910;8.630;2023-04-03T00:28:03;7.13;;;4.60;;
22871;SDS011;11603;44.910;8.630;2023-04-03T00:30:29;8.38;;;4.20;;
22871;SDS011;11603;44.910;8.630;2023-04-03T00:32:55;8.80;;;4.30;;
22871;SDS011;11603;44.910;8.630;2023-04-03T00:35:21;8.25;;;4.63;;
22871;SDS011;11603;44.910;8.630;2023-04-03T00:37:47;10.60;;;4.70;;
22871;SDS011;11603;44.910;8.630;2023-04-03T00:40:13;7.05;;;4.70;;
22871;SDS011;11603;44.910;8.630;2023-04-03T00:42:41;5.97;;;4.60;;
22871;SDS011;11603;44.910;8.630;2023-04-03T00:45:26;8.55;;;4.97;;
22871;SDS011;11603;44.910;8.630;2023-04-03T00:47:58;7.20;;;4.70;;
22871;SDS011;11603;44.910;8.630;2023-04-03T00:50:27;8.00;;;5.00;;
22871;SDS011;11603;44.910;8.630;2023-04-03T00:52:55;6.13;;;4.93;;
22871;SDS011;11603;44.910;8.630;2023-04-03T00:55:21;6.05;;;4.97;;
22871;SDS011;11603;44.910;8.630;2023-04-03T00:57:48;7.63;;;5.32;;
22871;SDS011;11603;44.910;8.630;2023-04-03T01:00:16;7.18;;;5.18;;
22871;SDS011;11603;44.910;8.630;2023-04-03T01:02:44;6.57;;;4.63;;
22871;SDS011;11603;44.910;8.630;2023-04-03T01:05:12;6.82;;;4.70;;
22871;SDS011;11603;44.910;8.630;2023-04-03T01:07:41;6.85;;;5.15;;
22871;SDS011;11603;44.910;8.630;2023-04-03T01:10:08;8.32;;;5.80;;
22871;SDS011;11603;44.910;8.630;2023-04-03T01:12:37;6.22;;;5.45;;
22871;SDS011;11603;44.910;8.630;2023-04-03T01:15:08;7.32;;;5.38;;
22871;SDS011;11603;44.910;8.630;2023-04-03T01:17:38;7.15;;;5.45;;
22871;SDS011;11603;44.910;8.630;2023-04-03T01:25:49;10.50;;;5.20;;
22871;SDS011;11603;44.910;8.630;2023-04-03T01:28:25;7.75;;;5.40;;
22871;SDS011;11603;44.910;8.630;2023-04-03T01:31:05;8.80;;;5.30;;
22871;SDS011;11603;44.910;8.630;2023-04-03T01:33:34;7.85;;;5.55;;
22871;SDS011;11603;44.910;8.630;2023-04-03T01:36:01;15.68;;;5.88;;
22871;SDS011;11603;44.910;8.630;2023-04-03T01:38:28;7.70;;;5.28;;
22871;SDS011;11603;44.910;8.630;2023-04-03T01:40:54;8.48;;;5.82;;
22871;SDS011;11603;44.910;8.630;2023-04-03T01:43:19;9.65;;;5.97;;
22871;SDS011;11603;44.910;8.630;2023-04-03T01:45:45;7.97;;;5.57;;
22871;SDS011;11603;44.910;8.630;2023-04-03T01:48:12;9.27;;;6.18;;
22871;SDS011;11603;44.910;8.630;2023-04-03T01:50:38;10.30;;;5.70;;
22871;SDS011;11603;44.910;8.630;2023-04-03T01:53:04;9.75;;;5.78;;
22871;SDS011;11603;44.910;8.630;2023-04-03T01:55:30;8.02;;;5.70;;
22871;SDS011;11603;44.910;8.630;2023-04-03T01:57:55;9.60;;;6.38;;
22871;SDS011;11603;44.910;8.630;2023-04-03T02:00:21;12.35;;;6.63;;
22871;SDS011;11603;44.910;8.630;2023-04-03T02:02:47;7.78;;;6.45;;
22871;SDS011;11603;44.910;8.630;2023-04-03T02:05:12;7.03;;;6.28;;
22871;SDS011;11603;44.910;8.630;2023-04-03T02:07:38;10.02;;;6.30;;
22871;SDS011;11603;44.910;8.630;2023-04-03T02:10:04;9.23;;;6.40;;
22871;SDS011;11603;44.910;8.630;2023-04-03T02:12:29;10.40;;;5.93;;
22871;SDS011;11603;44.910;8.630;2023-04-03T02:14:55;7.55;;;6.13;;
22871;SDS011;11603;44.910;8.630;2023-04-03T02:17:20;9.35;;;6.55;;
22871;SDS011;11603;44.910;8.630;2023-04-03T02:19:46;10.10;;;7.25;;
22871;SDS011;11603;44.910;8.630;2023-04-03T02:22:11;7.95;;;6.22;;
22871;SDS011;11603;44.910;8.630;2023-04-03T02:24:37;10.60;;;6.68;;
22871;SDS011;11603;44.910;8.630;2023-04-03T02:27:04;9.18;;;6.93;;
22871;SDS011;11603;44.910;8.630;2023-04-03T02:29:29;7.25;;;6.13;;
22871;SDS011;11603;44.910;8.630;2023-04-03T02:31:55;8.90;;;6.45;;
22871;SDS011;11603;44.910;8.630;2023-04-03T02:34:22;11.25;;;7.30;;
22871;SDS011;11603;44.910;8.630;2023-04-03T02:36:48;8.15;;;6.50;;
22871;SDS011;11603;44.910;8.630;2023-04-03T02:39:15;10.95;;;6.43;;
22871;SDS011;11603;44.910;8.630;2023-04-03T02:41:41;7.57;;;5.82;;
22871;SDS011;11603;44.910;8.630;2023-04-03T02:44:12;9.63;;;5.70;;
22871;SDS011;11603;44.910;8.630;2023-04-03T02:46:38;7.78;;;6.30;;
22871;SDS011;11603;44.910;8.630;2023-04-03T02:49:04;8.23;;;5.82;;
22871;SDS011;11603;44.910;8.630;2023-04-03T02:51:30;6.90;;;5.72;;
22871;SDS011;11603;44.910;8.630;2023-04-03T02:53:56;8.02;;;5.72;;
22871;SDS011;11603;44.910;8.630;2023-04-03T02:56:25;7.57;;;6.00;;
22871;SDS011;11603;44.910;8.630;2023-04-03T02:58:52;7.50;;;5.40;;
22871;SDS011;11603;44.910;8.630;2023-04-03T03:01:18;8.30;;;5.82;;
22871;SDS011;11603;44.910;8.630;2023-04-03T03:03:44;8.25;;;5.72;;
22871;SDS011;11603;44.910;8.630;2023-04-03T03:06:10;8.80;;;6.32;;
22871;SDS011;11603;44.910;8.630;2023-04-03T03:08:38;10.32;;;5.70;;
22871;SDS011;11603;44.910;8.630;2023-04-03T03:11:05;9.10;;;6.72;;
22871;SDS011;11603;44.910;8.630;2023-04-03T03:13:32;10.32;;;6.05;;
22871;SDS011;11603;44.910;8.630;2023-04-03T03:15:58;8.68;;;6.57;;
22871;SDS011;11603;44.910;8.630;2023-04-03T03:18:24;11.00;;;6.25;;
22871;SDS011;11603;44.910;8.630;2023-04-03T03:20:53;15.68;;;6.68;;
22871;SDS011;11603;44.910;8.630;2023-04-03T03:23:21;9.38;;;6.43;;
22871;SDS011;11603;44.910;8.630;2023-04-03T03:25:48;7.95;;;6.50;;
22871;SDS011;11603;44.910;8.630;2023-04-03T03:28:14;7.15;;;6.05;;
22871;SDS011;11603;44.910;8.630;2023-04-03T03:30:40;7.43;;;5.70;;
22871;SDS011;11603;44.910;8.630;2023-04-03T03:33:05;8.57;;;6.13;;
22871;SDS011;11603;44.910;8.630;2023-04-03T03:35:31;8.40;;;6.07;;
22871;SDS011;11603;44.910;8.630;2023-04-03T03:37:56;9.60;;;5.63;;
22871;SDS011;11603;44.910;8.630;2023-04-03T03:40:22;8.57;;;6.07;;
22871;SDS011;11603;44.910;8.630;2023-04-03T03:42:47;6.60;;;5.05;;
22871;SDS011;11603;44.910;8.630;2023-04-03T03:45:13;7.50;;;5.53;;
22871;SDS011;11603;44.910;8.630;2023-04-03T03:47:40;8.98;;;5.80;;
22871;SDS011;11603;44.910;8.630;2023-04-03T03:50:06;10.40;;;5.60;;
22871;SDS011;11603;44.910;8.630;2023-04-03T03:52:32;9.13;;;5.05;;
22871;SDS011;11603;44.910;8.630;2023-04-03T03:54:57;8.60;;;6.40;;
22871;SDS011;11603;44.910;8.630;2023-04-03T03:57:23;10.20;;;5.88;;
22871;SDS011;11603;44.910;8.630;2023-04-03T03:59:48;9.55;;;5.78;;
22871;SDS011;11603;44.910;8.630;2023-04-03T04:02:17;8.05;;;5.65;;
22871;SDS011;11603;44.910;8.630;2023-04-03T04:04:42;8.68;;;5.85;;
22871;SDS011;11603;44.910;8.630;2023-04-03T04:07:08;8.88;;;5.60;;
22871;SDS011;11603;44.910;8.630;2023-04-03T04:09:34;11.00;;;5.88;;
22871;SDS011;11603;44.910;8.630;2023-04-03T04:12:00;10.85;;;5.65;;
22871;SDS011;11603;44.910;8.630;2023-04-03T04:14:26;7.53;;;5.57;;
22871;SDS011;11603;44.910;8.630;2023-04-03T04:16:53;6.70;;;5.57;;
22871;SDS011;11603;44.910;8.630;2023-04-03T04:19:23;6.18;;;5.20;;
22871;SDS011;11603;44.910;8.630;2023-04-03T04:21:49;8.07;;;5.97;;
22871;SDS011;11603;44.910;8.630;2023-04-03T04:24:15;9.40;;;5.35;;
22871;SDS011;11603;44.910;8.630;2023-04-03T04:26:41;9.18;;;5.85;;
22871;SDS011;11603;44.910;8.630;2023-04-03T04:29:09;7.85;;;5.50;;
22871;SDS011;11603;44.910;8.630;2023-04-03T04:31:35;8.35;;;5.65;;
22871;SDS011;11603;44.910;8.630;2023-04-03T04:34:02;7.82;;;5.35;;
22871;SDS011;11603;44.910;8.630;2023-04-03T04:36:29;10.13;;;5.70;;
22871;SDS011;11603;44.910;8.630;2023-04-03T04:38:54;8.68;;;5.85;;
22871;SDS011;11603;44.910;8.630;2023-04-03T04:41:22;8.95;;;5.93;;
22871;SDS011;11603;44.910;8.630;2023-04-03T04:43:49;10.55;;;5.88;;
22871;SDS011;11603;44.910;8.630;2023-04-03T04:46:16;9.38;;;6.45;;
22871;SDS011;11603;44.910;8.630;2023-04-03T04:48:47;12.88;;;6.25;;
22871;SDS011;11603;44.910;8.630;2023-04-03T04:51:14;11.27;;;6.43;;
22871;SDS011;11603;44.910;8.630;2023-04-03T04:53:41;13.13;;;7.00;;
22871;SDS011;11603;44.910;8.630;2023-04-03T04:56:08;12.15;;;6.10;;
22871;SDS011;11603;44.910;8.630;2023-04-03T04:58:36;8.65;;;5.55;;
22871;SDS011;11603;44.910;8.630;2023-04-03T05:01:06;12.68;;;6.15;;
22871;SDS011;11603;44.910;8.630;2023-04-03T05:03:37;13.43;;;5.65;;
22871;SDS011;11603;44.910;8.630;2023-04-03T05:06:03;11.48;;;5.93;;
22871;SDS011;11603;44.910;8.630;2023-04-03T05:08:30;15.23;;;6.40;;
22871;SDS011;11603;44.910;8.630;2023-04-03T05:10:56;10.10;;;5.82;;
22871;SDS011;11603;44.910;8.630;2023-04-03T05:13:24;10.00;;;6.18;;
22871;SDS011;11603;44.910;8.630;2023-04-03T05:15:50;9.00;;;5.50;;
22871;SDS011;11603;44.910;8.630;2023-04-03T05:18:15;8.93;;;5.80;;
22871;SDS011;11603;44.910;8.630;2023-04-03T05:20:41;8.60;;;5.50;;
22871;SDS011;11603;44.910;8.630;2023-04-03T05:23:09;9.10;;;5.85;;
22871;SDS011;11603;44.910;8.630;2023-04-03T05:25:37;8.25;;;5.80;;
22871;SDS011;11603;44.910;8.630;2023-04-03T05:28:04;11.40;;;5.20;;
22871;SDS011;11603;44.910;8.630;2023-04-03T05:30:30;14.18;;;5.35;;
22871;SDS011;11603;44.910;8.630;2023-04-03T05:32:55;8.43;;;4.60;;
22871;SDS011;11603;44.910;8.630;2023-04-03T05:35:31;8.10;;;4.40;;
22871;SDS011;11603;44.910;8.630;2023-04-03T05:37:59;7.20;;;4.25;;
22871;SDS011;11603;44.910;8.630;2023-04-03T05:40:25;8.45;;;4.80;;
22871;SDS011;11603;44.910;8.630;2023-04-03T05:42:53;9.68;;;4.55;;
22871;SDS011;11603;44.910;8.630;2023-04-03T05:45:22;12.00;;;4.63;;
22871;SDS011;11603;44.910;8.630;2023-04-03T05:47:48;8.98;;;4.90;;
22871;SDS011;11603;44.910;8.630;2023-04-03T05:50:13;9.30;;;4.80;;
22871;SDS011;11603;44.910;8.630;2023-04-03T05:52:40;11.32;;;5.43;;
22871;SDS011;11603;44.910;8.630;2023-04-03T05:55:09;7.63;;;5.50;;
22871;SDS011;11603;44.910;8.630;2023-04-03T05:57:35;8.07;;;4.85;;
22871;SDS011;11603;44.910;8.630;2023-04-03T06:00:04;11.57;;;5.05;;
22871;SDS011;11603;44.910;8.630;2023-04-03T06:02:39;10.25;;;5.00;;
22871;SDS011;11603;44.910;8.630;2023-04-03T06:05:06;11.30;;;4.93;;
22871;SDS011;11603;44.910;8.630;2023-04-03T06:07:33;12.98;;;5.28;;
22871;SDS011;11603;44.910;8.630;2023-04-03T06:09:59;11.20;;;5.10;;
22871;SDS011;11603;44.910;8.630;2023-04-03T06:12:26;7.28;;;4.50;;
22871;SDS011;11603;44.910;8.630;2023-04-03T06:14:55;10.40;;;4.93;;
22871;SDS011;11603;44.910;8.630;2023-04-03T06:17:21;14.27;;;5.38;;
22871;SDS011;11603;44.910;8.630;2023-04-03T06:19:47;7.68;;;4.60;;
22871;SDS011;11603;44.910;8.630;2023-04-03T06:22:14;8.40;;;5.07;;
22871;SDS011;11603;44.910;8.630;2023-04-03T06:24:39;6.65;;;5.03;;
22871;SDS011;11603;44.910;8.630;2023-04-03T06:27:05;10.13;;;5.25;;
22871;SDS011;11603;44.910;8.630;2023-04-03T06:29:31;11.18;;;4.88;;
22871;SDS011;11603;44.910;8.630;2023-04-03T06:31:56;6.28;;;4.80;;
22871;SDS011;11603;44.910;8.630;2023-04-03T06:34:23;11.20;;;4.85;;
22871;SDS011;11603;44.910;8.630;2023-04-03T06:36:48;9.13;;;4.63;;
22871;SDS011;11603;44.910;8.630;2023-04-03T06:39:18;11.23;;;4.50;;
22871;SDS011;11603;44.910;8.630;2023-04-03T06:41:46;9.15;;;4.10;;
22871;SDS011;11603;44.910;8.630;2023-04-03T06:44:11;6.68;;;4.38;;
22871;SDS011;11603;44.910;8.630;2023-04-03T06:46:38;6.65;;;4.05;;
22871;SDS011;11603;44.910;8.630;2023-04-03T06:49:04;8.55;;;3.72;;
22871;SDS011;11603;44.910;8.630;2023-04-03T06:51:32;7.40;;;3.95;;
22871;SDS011;11603;44.910;8.630;2023-04-03T06:53:58;6.75;;;4.55;;
22871;SDS011;11603;44.910;8.630;2023-04-03T06:56:25;6.63;;;4.35;;
22871;SDS011;11603;44.910;8.630;2023-04-03T06:58:52;6.25;;;4.57;;
22871;SDS011;11603;44.910;8.630;2023-04-03T07:01:20;6.78;;;4.22;;
22871;SDS011;11603;44.910;8.630;2023-04-03T07:03:45;10.48;;;4.07;;
22871;SDS011;11603;44.910;8.630;2023-04-03T07:06:14;9.63;;;4.32;;
22871;SDS011;11603;44.910;8.630;2023-04-03T07:08:42;6.05;;;4.20;;
22871;SDS011;11603;44.910;8.630;2023-04-03T07:11:10;7.88;;;4.03;;
22871;SDS011;11603;44.910;8.630;2023-04-03T07:13:37;6.68;;;4.22;;
22871;SDS011;11603;44.910;8.630;2023-04-03T07:16:02;6.35;;;4.50;;
22871;SDS011;11603;44.910;8.630;2023-04-03T07:18:30;7.97;;;4.30;;
22871;SDS011;11603;44.910;8.630;2023-04-03T07:20:56;8.00;;;4.30;;
22871;SDS011;11603;44.910;8.630;2023-04-03T07:23:21;10.75;;;4.53;;
22871;SDS011;11603;44.910;8.630;2023-04-03T07:25:48;8.23;;;3.92;;
22871;SDS011;11603;44.910;8.630;2023-04-03T07:28:15;4.63;;;3.80;;
22871;SDS011;11603;44.910;8.630;2023-04-03T07:30:49;5.95;;;4.20;;
22871;SDS011;11603;44.910;8.630;2023-04-03T07:33:17;5.85;;;3.63;;
22871;SDS011;11603;44.910;8.630;2023-04-03T07:35:44;6.75;;;3.80;;
22871;SDS011;11603;44.910;8.630;2023-04-03T07:38:10;5.03;;;3.92;;
22871;SDS011;11603;44.910;8.630;2023-04-03T07:40:36;5.15;;;3.78;;
22871;SDS011;11603;44.910;8.630;2023-04-03T07:43:02;7.80;;;4.28;;
22871;SDS011;11603;44.910;8.630;2023-04-03T07:45:29;7.38;;;4.28;;
22871;SDS011;11603;44.910;8.630;2023-04-03T07:47:54;5.55;;;3.88;;
22871;SDS011;11603;44.910;8.630;2023-04-03T07:50:21;4.78;;;3.78;;
22871;SDS011;11603;44.910;8.630;2023-04-03T07:52:47;6.30;;;4.20;;
22871;SDS011;11603;44.910;8.630;2023-04-03T07:55:12;9.88;;;3.78;;
22871;SDS011;11603;44.910;8.630;2023-04-03T07:57:38;6.88;;;3.70;;
22871;SDS011;11603;44.910;8.630;2023-04-03T08:00:04;6.35;;;3.72;;
22871;SDS011;11603;44.910;8.630;2023-04-03T08:02:37;7.70;;;4.10;;
22871;SDS011;11603;44.910;8.630;2023-04-03T08:05:02;10.07;;;4.57;;
22871;SDS011;11603;44.910;8.630;2023-04-03T08:07:28;10.80;;;3.80;;
22871;SDS011;11603;44.910;8.630;2023-04-03T08:09:54;6.40;;;3.97;;
22871;SDS011;11603;44.910;8.630;2023-04-03T08:12:19;7.18;;;4.07;;
22871;SDS011;11603;44.910;8.630;2023-04-03T08:14:45;7.53;;;4.00;;
22871;SDS011;11603;44.910;8.630;2023-04-03T08:17:10;4.95;;;3.80;;
22871;SDS011;11603;44.910;8.630;2023-04-03T08:19:40;5.55;;;4.00;;
22871;SDS011;11603;44.910;8.630;2023-04-03T08:22:05;5.63;;;3.72;;
22871;SDS011;11603;44.910;8.630;2023-04-03T08:24:32;3.80;;;3.30;;
22871;SDS011;11603;44.910;8.630;2023-04-03T08:26:58;5.03;;;3.58;;
22871;SDS011;11603;44.910;8.630;2023-04-03T08:29:24;5.07;;;3.40;;
22871;SDS011;11603;44.910;8.630;2023-04-03T08:31:50;4.97;;;3.50;;
22871;SDS011;11603;44.910;8.630;2023-04-03T08:34:16;4.47;;;3.40;;
22871;SDS011;11603;44.910;8.630;2023-04-03T08:36:42;5.32;;;3.58;;
22871;SDS011;11603;44.910;8.630;2023-04-03T08:39:08;4.63;;;3.63;;
22871;SDS011;11603;44.910;8.630;2023-04-03T08:41:41;7.80;;;3.67;;
22871;SDS011;11603;44.910;8.630;2023-04-03T08:44:15;6.10;;;3.60;;
22871;SDS011;11603;44.910;8.630;2023-04-03T08:49:28;6.75;;;3.58;;
22871;SDS011;11603;44.910;8.630;2023-04-03T08:51:59;5.45;;;3.72;;
22871;SDS011;11603;44.910;8.630;2023-04-03T08:54:33;5.50;;;3.65;;
22871;SDS011;11603;44.910;8.630;2023-04-03T08:57:02;5.53;;;4.13;;
22871;SDS011;11603;44.910;8.630;2023-04-03T08:59:32;9.40;;;4.28;;
22871;SDS011;11603;44.910;8.630;2023-04-03T09:02:00;7.95;;;4.35;;
22871;SDS011;11603;44.910;8.630;2023-04-03T09:04:30;7.80;;;4.70;;
22871;SDS011;11603;44.910;8.630;2023-04-03T09:06:59;6.97;;;4.32;;
22871;SDS011;11603;44.910;8.630;2023-04-03T09:09:33;8.43;;;5.20;;
22871;SDS011;11603;44.910;8.630;2023-04-03T09:17:59;7.43;;;4.55;;
22871;SDS011;11603;44.910;8.630;2023-04-03T09:20:42;7.72;;;5.28;;
22871;SDS011;11603;44.910;8.630;2023-04-03T09:24:06;5.65;;;4.95;;
22871;SDS011;11603;44.910;8.630;2023-04-03T09:26:36;7.10;;;5.10;;
22871;SDS011;11603;44.910;8.630;2023-04-03T09:29:10;9.15;;;5.07;;
22871;SDS011;11603;44.910;8.630;2023-04-03T09:31:43;9.75;;;5.13;;
22871;SDS011;11603;44.910;8.630;2023-04-03T09:34:22;7.82;;;4.63;;
22871;SDS011;11603;44.910;8.630;2023-04-03T09:36:53;8.02;;;5.70;;
22871;SDS011;11603;44.910;8.630;2023-04-03T09:39:24;6.20;;;4.82;;
22871;SDS011;11603;44.910;8.630;2023-04-03T09:41:56;12.80;;;5.65;;
22871;SDS011;11603;44.910;8.630;2023-04-03T09:44:23;7.45;;;4.90;;
22871;SDS011;11603;44.910;8.630;2023-04-03T09:46:50;10.18;;;5.20;;
22871;SDS011;11603;44.910;8.630;2023-04-03T09:49:16;8.27;;;5.43;;
22871;SDS011;11603;44.910;8.630;2023-04-03T09:51:43;6.28;;;5.38;;
22871;SDS011;11603;44.910;8.630;2023-04-03T09:54:26;9.35;;;5.20;;
22871;SDS011;11603;44.910;8.630;2023-04-03T09:56:54;10.27;;;6.20;;
22871;SDS011;11603;44.910;8.630;2023-04-03T09:59:22;7.40;;;5.72;;
22871;SDS011;11603;44.910;8.630;2023-04-03T10:01:59;10.52;;;5.68;;
22871;SDS011;11603;44.910;8.630;2023-04-03T10:04:36;11.27;;;5.97;;
22871;SDS011;11603;44.910;8.630;2023-04-03T10:07:03;8.65;;;4.93;;
22871;SDS011;11603;44.910;8.630;2023-04-03T10:10:01;11.07;;;5.15;;
22871;SDS011;11603;44.910;8.630;2023-04-03T10:12:39;7.53;;;5.35;;
22871;SDS011;11603;44.910;8.630;2023-04-03T10:15:10;7.70;;;6.13;;
22871;SDS011;11603;44.910;8.630;2023-04-03T10:20:30;10.50;;;6.53;;
22871;SDS011;11603;44.910;8.630;2023-04-03T10:23:24;8.13;;;5.47;;
22871;SDS011;11603;44.910;8.630;2023-04-03T10:34:18;7.63;;;6.40;;
22871;SDS011;11603;44.910;8.630;2023-04-03T10:39:48;9.65;;;5.95;;
22871;SDS011;11603;44.910;8.630;2023-04-03T10:50:44;10.68;;;6.35;;
22871;SDS011;11603;44.910;8.630;2023-04-03T10:58:26;10.05;;;6.47;;
22871;SDS011;11603;44.910;8.630;2023-04-03T11:00:53;10.52;;;5.78;;
22871;SDS011;11603;44.910;8.630;2023-04-03T11:03:29;10.82;;;6.57;;
22871;SDS011;11603;44.910;8.630;2023-04-03T11:06:02;8.18;;;5.72;;
22871;SDS011;11603;44.910;8.630;2023-04-03T11:08:34;9.30;;;7.05;;
22871;SDS011;11603;44.910;8.630;2023-04-03T11:11:10;11.30;;;6.78;;
22871;SDS011;11603;44.910;8.630;2023-04-03T11:13:41;10.25;;;6.38;;
22871;SDS011;11603;44.910;8.630;2023-04-03T11:16:15;10.50;;;6.97;;
22871;SDS011;11603;44.910;8.630;2023-04-03T11:18:48;9.80;;;5.97;;
22871;SDS011;11603;44.910;8.630;2023-04-03T11:21:21;8.98;;;5.85;;
22871;SDS011;11603;44.910;8.630;2023-04-03T11:23:52;10.40;;;6.43;;
22871;SDS011;11603;44.910;8.630;2023-04-03T11:26:22;10.85;;;6.30;;
22871;SDS011;11603;44.910;8.630;2023-04-03T11:28:56;14.50;;;7.50;;
22871;SDS011;11603;44.910;8.630;2023-04-03T11:36:44;10.00;;;5.97;;
22871;SDS011;11603;44.910;8.630;2023-04-03T11:39:25;8.32;;;5.68;;
22871;SDS011;11603;44.910;8.630;2023-04-03T11:41:55;9.60;;;6.80;;
22871;SDS011;11603;44.910;8.630;2023-04-03T11:44:38;10.40;;;6.70;;
22871;SDS011;11603;44.910;8.630;2023-04-03T11:47:08;7.82;;;5.35;;
22871;SDS011;11603;44.910;8.630;2023-04-03T12:13:36;12.63;;;5.60;;
22871;SDS011;11603;44.910;8.630;2023-04-03T12:16:21;8.35;;;6.15;;
22871;SDS011;11603;44.910;8.630;2023-04-03T12:18:58;11.23;;;5.20;;
22871;SDS011;11603;44.910;8.630;2023-04-03T12:27:00;8.20;;;6.00;;
22871;SDS011;11603;44.910;8.630;2023-04-03T12:29:43;8.77;;;6.57;;
22871;SDS011;11603;44.910;8.630;2023-04-03T12:43:36;7.53;;;5.03;;
22871;SDS011;11603;44.910;8.630;2023-04-03T12:46:34;6.70;;;4.80;;
22871;SDS011;11603;44.910;8.630;2023-04-03T12:49:05;12.38;;;4.63;;
22871;SDS011;11603;44.910;8.630;2023-04-03T12:51:44;5.70;;;4.40;;
22871;SDS011;11603;44.910;8.630;2023-04-03T12:54:16;7.63;;;4.55;;
22871;SDS011;11603;44.910;8.630;2023-04-03T12:57:15;7.00;;;4.25;;
22871;SDS011;11603;44.910;8.630;2023-04-03T12:59:46;8.30;;;3.55;;
22871;SDS011;11603;44.910;8.630;2023-04-03T13:02:31;7.72;;;3.25;;
22871;SDS011;11603;44.910;8.630;2023-04-03T13:05:08;8.02;;;3.80;;
22871;SDS011;11603;44.910;8.630;2023-04-03T13:07:40;5.25;;;3.42;;
22871;SDS011;11603;44.910;8.630;2023-04-03T13:12:33;4.38;;;3.00;;
22871;SDS011;11603;44.910;8.630;2023-04-03T13:15:12;5.50;;;2.80;;
22871;SDS011;11603;44.910;8.630;2023-04-03T13:17:41;5.60;;;3.20;;
22871;SDS011;11603;44.910;8.630;2023-04-03T13:20:17;6.78;;;3.38;;
22871;SDS011;11603;44.910;8.630;2023-04-03T13:22:53;9.32;;;2.67;;
22871;SDS011;11603;44.910;8.630;2023-04-03T13:25:24;3.20;;;2.33;;
22871;SDS011;11603;44.910;8.630;2023-04-03T13:27:52;3.63;;;2.58;;
22871;SDS011;11603;44.910;8.630;2023-04-03T13:30:29;5.85;;;2.88;;
22871;SDS011;11603;44.910;8.630;2023-04-03T13:32:58;3.53;;;2.42;;
22871;SDS011;11603;44.910;8.630;2023-04-03T13:35:27;8.45;;;2.22;;
22871;SDS011;11603;44.910;8.630;2023-04-03T13:38:06;3.88;;;2.03;;
22871;SDS011;11603;44.910;8.630;2023-04-03T13:40:48;10.77;;;2.25;;
22871;SDS011;11603;44.910;8.630;2023-04-03T13:43:35;2.38;;;2.08;;
22871;SDS011;11603;44.910;8.630;2023-04-03T13:48:40;5.68;;;2.60;;
22871;SDS011;11603;44.910;8.630;2023-04-03T13:53:45;3.10;;;1.80;;
22871;SDS011;11603;44.910;8.630;2023-04-03T13:56:29;2.03;;;1.58;;
22871;SDS011;11603;44.910;8.630;2023-04-03T13:58:57;3.40;;;1.80;;
22871;SDS011;11603;44.910;8.630;2023-04-03T14:04:23;8.68;;;1.85;;
22871;SDS011;11603;44.910;8.630;2023-04-03T14:06:52;2.65;;;1.98;;
22871;SDS011;11603;44.910;8.630;2023-04-03T14:09:19;3.58;;;1.52;;
22871;SDS011;11603;44.910;8.630;2023-04-03T14:11:46;2.38;;;1.80;;
22871;SDS011;11603;44.910;8.630;2023-04-03T14:14:16;3.67;;;1.33;;
22871;SDS011;11603;44.910;8.630;2023-04-03T14:16:46;6.20;;;1.88;;
22871;SDS011;11603;44.910;8.630;2023-04-03T14:19:23;2.92;;;1.58;;
22871;SDS011;11603;44.910;8.630;2023-04-03T14:21:51;1.92;;;1.40;;
22871;SDS011;11603;44.910;8.630;2023-04-03T14:24:18;1.63;;;1.30;;
22871;SDS011;11603;44.910;8.630;2023-04-03T14:26:46;2.35;;;1.33;;
22871;SDS011;11603;44.910;8.630;2023-04-03T14:29:13;7.85;;;1.85;;
22871;SDS011;11603;44.910;8.630;2023-04-03T14:31:39;4.90;;;1.65;;
22871;SDS011;11603;44.910;8.630;2023-04-03T14:34:06;1.70;;;1.40;;
22871;SDS011;11603;44.910;8.630;2023-04-03T14:36:32;3.30;;;1.73;;
22871;SDS011;11603;44.910;8.630;2023-04-03T14:38:58;1.70;;;1.60;;
22871;SDS011;11603;44.910;8.630;2023-04-03T14:41:25;2.45;;;1.15;;
22871;SDS011;11603;44.910;8.630;2023-04-03T14:43:52;4.80;;;1.77;;
22871;SDS011;11603;44.910;8.630;2023-04-03T14:46:20;2.72;;;1.65;;
22871;SDS011;11603;44.910;8.630;2023-04-03T14:48:51;3.72;;;1.60;;
22871;SDS011;11603;44.910;8.630;2023-04-03T14:51:16;1.67;;;1.40;;
22871;SDS011;11603;44.910;8.630;2023-04-03T14:53:43;2.72;;;1.60;;
22871;SDS011;11603;44.910;8.630;2023-04-03T14:56:17;4.80;;;1.70;;
22871;SDS011;11603;44.910;8.630;2023-04-03T14:58:47;3.10;;;1.75;;
22871;SDS011;11603;44.910;8.630;2023-04-03T15:01:16;1.80;;;1.45;;
22871;SDS011;11603;44.910;8.630;2023-04-03T15:03:42;1.95;;;1.40;;
22871;SDS011;11603;44.910;8.630;2023-04-03T15:06:09;9.05;;;1.67;;
22871;SDS011;11603;44.910;8.630;2023-04-03T15:08:36;4.35;;;1.60;;
22871;SDS011;11603;44.910;8.630;2023-04-03T15:11:02;2.35;;;1.25;;
22871;SDS011;11603;44.910;8.630;2023-04-03T15:13:28;2.28;;;1.45;;
22871;SDS011;11603;44.910;8.630;2023-04-03T15:15:53;3.92;;;1.50;;
22871;SDS011;11603;44.910;8.630;2023-04-03T15:18:23;1.55;;;1.20;;
22871;SDS011;11603;44.910;8.630;2023-04-03T15:20:51;3.53;;;1.83;;
22871;SDS011;11603;44.910;8.630;2023-04-03T15:23:18;1.42;;;1.30;;
22871;SDS011;11603;44.910;8.630;2023-04-03T15:25:44;1.80;;;1.10;;
22871;SDS011;11603;44.910;8.630;2023-04-03T15:28:31;1.67;;;1.40;;
22871;SDS011;11603;44.910;8.630;2023-04-03T15:31:00;2.20;;;1.40;;
22871;SDS011;11603;44.910;8.630;2023-04-03T15:33:26;2.05;;;1.08;;
22871;SDS011;11603;44.910;8.630;2023-04-03T15:35:52;1.30;;;1.20;;
22871;SDS011;11603;44.910;8.630;2023-04-03T15:38:18;3.38;;;1.58;;
22871;SDS011;11603;44.910;8.630;2023-04-03T15:40:43;5.32;;;1.60;;
22871;SDS011;11603;44.910;8.630;2023-04-03T15:43:09;1.90;;;1.40;;
22871;SDS011;11603;44.910;8.630;2023-04-03T15:45:36;7.40;;;1.50;;
22871;SDS011;11603;44.910;8.630;2023-04-03T15:48:03;3.88;;;1.67;;
22871;SDS011;11603;44.910;8.630;2023-04-03T15:50:30;5.10;;;2.00;;
22871;SDS011;11603;44.910;8.630;2023-04-03T15:52:56;4.22;;;1.67;;
22871;SDS011;11603;44.910;8.630;2023-04-03T15:55:26;2.00;;;1.45;;
22871;SDS011;11603;44.910;8.630;2023-04-03T15:57:53;4.47;;;1.50;;
22871;SDS011;11603;44.910;8.630;2023-04-03T16:00:19;4.15;;;1.40;;
22871;SDS011;11603;44.910;8.630;2023-04-03T16:02:46;2.47;;;1.55;;
22871;SDS011;11603;44.910;8.630;2023-04-03T16:05:13;2.38;;;1.45;;
22871;SDS011;11603;44.910;8.630;2023-04-03T16:07:40;3.70;;;1.67;;
22871;SDS011;11603;44.910;8.630;2023-04-03T16:10:07;2.88;;;1.77;;
22871;SDS011;11603;44.910;8.630;2023-04-03T16:12:33;4.50;;;1.70;;
22871;SDS011;11603;44.910;8.630;2023-04-03T16:15:00;2.17;;;1.80;;
22871;SDS011;11603;44.910;8.630;2023-04-03T16:17:25;2.60;;;1.45;;
22871;SDS011;11603;44.910;8.630;2023-04-03T16:19:52;4.32;;;1.60;;
22871;SDS011;11603;44.910;8.630;2023-04-03T16:22:19;1.77;;;1.50;;
22871;SDS011;11603;44.910;8.630;2023-04-03T16:24:46;3.78;;;1.50;;
22871;SDS011;11603;44.910;8.630;2023-04-03T16:27:12;2.00;;;1.60;;
22871;SDS011;11603;44.910;8.630;2023-04-03T16:29:38;3.40;;;1.60;;
22871;SDS011;11603;44.910;8.630;2023-04-03T16:32:03;2.97;;;1.45;;
22871;SDS011;11603;44.910;8.630;2023-04-03T16:34:29;2.63;;;1.40;;